Terminal Aerodrome Forecast
Issued by NWS Tuscon, AZ

Home | Current Version | Previous Version | Text Only | Print | Product List | Glossary On
Versions: 1 2 3 4 5 6 7 8 9 10 11 12 13 14 15 16 17 18 19 20 21
000
FTUS45 KTWC 011100
TAFTUS
TAF
KTUS 011120Z 0112/0212 VRB03KT P6SM VCTS SCT070CB OVC090
      TEMPO 0112/0114 VRB15G25KT 5SM -TSRA BKN070CB
     FM011500 VRB05KT P6SM SCT080 BKN120
     FM012200 27008KT P6SM VCTS SCT100CB BKN200
      TEMPO 0122/0124 VRB15G35KT BKN080CB
     FM020000 25005KT P6SM VCSH SCT050 BKN080
     FM020700 14005KT P6SM FEW050 SCT080 BKN100=

USA.gov is the U.S. government's official web portal to all federal, state and local government web resources and services.